Latest Coastal Weather Observations for Stenhouse Bay

IDS60701

Issued at 1:15 pm CST Thursday 18 September 2014 (issued every 10 minutes, with the page automatically refreshed every 10 minutes)

About coastal observations | Map of coastal stations | Coastal observations for SA | Marine services | Other Formats
Station Details ID: 022049 Name: STENHOUSE BAY Lat: -35.28 Lon: 136.94 Height: 42.0 m
Data from the previous 72 hours. | See also: Recent months at Stenhouse Bay
Date/Time
CST
Temp

°C
Wind Pressure Rain
since 9am
mm
Weather Cloud Vis
km
Sea
Height
m
Swell
Dir
 
Speed
knots
Gust
knots
hPa Trend Height
m
Period
s
Dir
18/01:00pm 15.2 E 4 7 1025.8 - 0.0 - - - - - - -
18/12:30pm 15.0 SE 5 7 1026.0 - 0.0 - - - - - - -
18/12:00pm 13.9 SE 5 8 1026.3 - 0.0 - - - - - - -
18/11:30am 14.2 ESE 6 7 1026.2 - 0.0 - - - - - - -
18/11:00am 13.7 SE 6 8 1026.3 - 0.0 - - - - - - -
18/10:30am 13.8 SSE 5 7 1026.6 - 0.0 - - - - - - -
18/10:00am 13.1 SE 5 8 1026.9 - 0.0 - - - - - - -
18/09:30am 13.2 SE 8 10 1026.8 - 0.0 - - - - - - -
18/09:00am 12.4 SE 11 13 1026.9 - 0.0 - - - - - - -
18/08:30am 13.1 S 5 6 1027.1 - 0.0 - - - - - - -
18/08:00am 12.6 SSE 4 7 1026.8 - 0.0 - - - - - - -
18/07:30am 11.4 SSE 5 6 1026.4 - 0.0 - - - - - - -
18/07:00am 11.1 SSE 5 7 1026.1 - 0.0 - - - - - - -
18/06:30am 10.8 SSE 6 8 1025.6 - 0.0 - - - - - - -
18/06:00am 10.0 S 5 7 1025.4 - 0.0 - - - - - - -
18/05:30am 10.2 S 5 7 1025.3 - 0.0 - - - - - - -
18/05:00am 10.6 SSE 7 10 1024.9 - 0.0 - - - - - - -
18/04:30am 10.9 SSE 8 11 1024.7 - 0.0 - - - - - - -
18/04:00am 11.3 S 8 11 1024.5 - 0.0 - - - - - - -
18/03:30am 11.0 S 9 11 1024.5 - 0.0 - - - - - - -
18/03:00am 11.0 SSE 11 13 1024.6 - 0.0 - - - - - - -
18/02:30am 10.6 SSW 4 9 1024.8 - 0.0 - - - - - - -
18/02:00am 9.7 WSW 5 7 1025.0 - 0.0 - - - - - - -
18/01:30am 10.6 SW 5 7 1025.1 - 0.0 - - - - - - -
18/01:00am 10.7 SSW 5 7 1025.3 - 0.0 - - - - - - -
18/12:30am 10.7 S 5 10 1025.4 - 0.0 - - - - - - -
18/12:00am 10.5 S 6 8 1025.6 - 0.0 - - - - - - -
 
Date/Time
CST
Temp

°C
Wind Pressure Rain
since 9am
mm
Weather Cloud Vis
km
Sea
Height
m
Swell
Dir
 
Speed
knots
Gust
knots
hPa Trend Height
m
Period
s
Dir
17/11:30pm 10.8 S 6 10 1025.7 - 0.0 - - - - - - -
17/11:00pm 11.0 S 7 9 1025.8 - 0.0 - - - - - - -
17/10:30pm 10.9 S 8 10 1025.7 - 0.0 - - - - - - -
17/10:00pm 10.8 S 8 11 1025.4 - 0.0 - - - - - - -
17/09:30pm 11.0 S 10 14 1025.4 - 0.0 - - - - - - -
17/09:00pm 11.3 S 10 13 1025.2 - 0.0 - - - - - - -
17/08:30pm 11.3 S 10 14 1025.1 - 0.0 - - - - - - -
17/08:00pm 11.5 S 12 16 1024.9 - 0.0 - - - - - - -
17/07:30pm 11.8 S 13 15 1024.6 - 0.0 - - - - - - -
17/07:00pm 12.1 SSW 9 13 1024.4 - 0.0 - - - - - - -
17/06:30pm 12.1 SW 10 14 1024.2 - 0.0 - - - - - - -
17/06:00pm 12.3 SW 9 14 1024.0 - 0.0 - - - - - - -
17/05:30pm 13.0 SSW 11 15 1023.6 - 0.0 - - - - - - -
17/05:00pm 13.5 SSW 10 14 1023.2 - 0.0 - - - - - - -
17/04:30pm 14.1 SSW 10 15 1023.0 - 0.0 - - - - - - -
17/04:00pm 14.4 SW 10 13 1022.9 - 0.0 - - - - - - -
17/03:30pm 15.0 SW 9 13 1023.0 - 0.0 - - - - - - -
17/03:00pm 15.1 SW 11 14 1022.9 - 0.0 - - - - - - -
17/02:30pm 15.3 SW 11 15 1022.9 - 0.0 - - - - - - -
17/02:00pm 15.5 SW 9 12 1022.6 - 0.0 - - - - - - -
17/01:30pm 15.5 SSW 10 14 1022.5 - 0.0 - - - - - - -
17/01:00pm 15.7 SW 9 15 1022.5 - 0.0 - - - - - - -
17/12:30pm 15.1 SW 11 14 1022.8 - 0.0 - - - - - - -
17/12:00pm 15.5 SW 9 13 1022.9 - 0.0 - - - - - - -
17/11:30am 15.2 SW 10 15 1022.9 - 0.0 - - - - - - -
17/11:00am 14.9 SW 11 16 1022.9 - 0.0 - - - - - - -
17/10:30am 14.6 SSW 11 15 1022.8 - 0.0 - - - - - - -
17/10:00am 14.7 SSW 9 13 1022.7 - 0.0 - - - - - - -
17/09:30am 13.8 S 13 17 1022.4 - 0.0 - - - - - - -
17/09:00am 13.6 S 12 18 1022.2 - 2.6 - - - - - - -
17/08:30am 13.8 SSW 11 17 1021.9 - 2.6 - - - - - - -
17/08:00am 12.9 SSW 12 18 1021.5 - 2.6 - - - - - - -
17/07:30am 12.5 SSW 14 20 1021.0 - 2.6 - - - - - - -
17/07:00am 11.8 S 12 18 1020.6 - 2.6 - - - - - - -
17/06:30am 12.7 SW 11 21 1020.3 - 2.2 - - - - - - -
17/06:00am 12.3 SSW 11 17 1020.0 - 1.6 - - - - - - -
17/05:30am 12.2 SW 10 15 1019.6 - 1.6 - - - - - - -
17/05:00am 12.1 SW 11 17 1019.4 - 1.6 - - - - - - -
17/04:30am 11.6 SW 10 16 1019.4 - 1.6 - - - - - - -
17/04:00am 11.7 SSW 14 17 1019.2 - 1.6 - - - - - - -
17/03:30am 11.3 SW 13 18 1019.1 - 1.6 - - - - - - -
17/03:00am 11.0 SW 11 18 1019.1 - 1.6 Recent precip. - - - - - -
17/02:30am 12.6 SW 12 18 1019.2 - 0.8 - - - - - - -
17/02:00am 12.4 WSW 12 16 1019.3 - 0.8 - - - - - - -
17/01:30am 12.2 WSW 12 16 1019.5 - 0.8 - - - - - - -
17/01:00am 11.0 W 7 11 1019.6 - 0.8 - - - - - - -
17/12:30am 11.1 W 7 10 1019.7 - 0.8 - - - - - - -
17/12:00am 11.4 WSW 9 13 1019.8 - 0.8 - - - - - - -
 
Date/Time
CST
Temp

°C
Wind Pressure Rain
since 9am
mm
Weather Cloud Vis
km
Sea
Height
m
Swell
Dir
 
Speed
knots
Gust
knots
hPa Trend Height
m
Period
s
Dir
16/11:30pm 11.7 WSW 9 15 1019.8 - 0.8 - - - - - - -
16/11:00pm 12.1 WSW 10 14 1019.8 - 0.8 - - - - - - -
16/10:30pm 12.2 WSW 12 16 1019.7 - 0.8 - - - - - - -
16/10:00pm 10.8 W 6 8 1019.9 - 0.8 - - - - - - -
16/09:30pm 12.2 W 7 18 1019.9 - 0.8 - - - - - - -
16/09:00pm 12.6 WSW 8 13 1019.7 - 0.8 - - - - - - -
16/08:30pm 12.7 SW 13 18 1019.5 - 0.8 - - - - - - -
16/08:00pm 12.5 SW 10 15 1019.3 - 0.8 - - - - - - -
16/07:30pm 12.6 WSW 12 18 1018.8 - 0.8 - - - - - - -
16/07:00pm 12.7 SW 10 14 1018.3 - 0.8 - - - - - - -
16/06:30pm 12.6 SW 13 19 1018.2 - 0.8 - - - - - - -
16/06:00pm 12.5 SW 15 22 1018.0 - 0.8 - - - - - - -
16/05:30pm 12.9 SW 15 20 1017.6 - 0.8 - - - - - - -
16/05:00pm 13.6 SW 13 19 1017.4 - 0.8 - - - - - - -
16/04:30pm 14.2 SW 13 20 1017.4 - 0.8 - - - - - - -
16/04:00pm 14.3 SW 13 18 1017.2 - 0.8 - - - - - - -
16/03:30pm 14.5 SW 14 21 1017.1 - 0.8 - - - - - - -
16/03:00pm 14.5 WSW 14 18 1017.1 - 0.8 - - - - - - -
16/02:30pm 14.6 WSW 14 18 1017.0 - 0.8 - - - - - - -
16/02:00pm 15.4 WSW 14 18 1017.1 - 0.8 - - - - - - -
16/01:30pm 15.9 WSW 13 18 1017.2 - 0.8 - - - - - - -
16/01:00pm 15.3 SW 13 17 1017.4 - 0.8 - - - - - - -
16/12:30pm 15.2 SW 14 20 1017.7 - 0.8 - - - - - - -
16/12:00pm 15.4 SW 15 20 1018.1 - 0.8 - - - - - - -
16/11:30am 14.9 WSW 14 19 1018.3 - 0.8 - - - - - - -
16/11:00am 14.4 SW 7 10 1018.5 - 0.8 - - - - - - -
16/10:30am 14.5 SSW 7 10 1018.5 - 0.4 - - - - - - -
16/10:00am 14.2 WSW 7 13 1018.6 - 0.4 - - - - - - -
16/09:30am 12.4 WSW 10 16 1018.7 - 0.4 - - - - - - -
16/09:00am 14.7 W 8 12 1018.6 - 0.0 - - - - - - -
16/08:30am 15.3 WSW 6 9 1018.3 - 0.0 - - - - - - -
16/08:00am 14.4 WSW 9 13 1018.5 - 0.0 - - - - - - -
16/07:30am 13.9 WSW 10 14 1018.4 - 0.0 - - - - - - -
16/07:00am 13.1 WSW 11 17 1018.1 - 0.0 - - - - - - -
16/06:30am 13.0 WSW 10 14 1017.9 - 0.0 - - - - - - -
16/06:00am 12.7 W 8 13 1017.7 - 0.0 - - - - - - -
16/05:30am 12.8 WSW 9 13 1017.5 - 0.0 - - - - - - -
16/05:00am 13.0 SW 10 13 1017.4 - 0.0 - - - - - - -
16/04:30am 13.3 WSW 10 14 1017.4 - 0.0 - - - - - - -
16/04:00am 13.4 WSW 10 13 1017.4 - 0.0 - - - - - - -
16/03:30am 13.2 WSW 11 13 1017.1 - 0.0 - - - - - - -
16/03:00am 13.1 WSW 10 13 1017.1 - 0.0 - - - - - - -
16/02:30am 13.2 WSW 10 14 1017.2 - 0.0 - - - - - - -
16/02:00am 13.3 WSW 10 14 1017.4 - 0.0 - - - - - - -
16/01:30am 13.1 SW 10 13 1017.6 - 0.0 - - - - - - -
16/01:00am 13.0 WSW 9 13 1018.0 - 0.0 - - - - - - -
16/12:30am 13.3 SW 11 14 1018.1 - 0.0 - - - - - - -
16/12:00am 13.4 SW 11 17 1018.2 - 0.0 - - - - - - -
 
Date/Time
CST
Temp

°C
Wind Pressure Rain
since 9am
mm
Weather Cloud Vis
km
Sea
Height
m
Swell
Dir
 
Speed
knots
Gust
knots
hPa Trend Height
m
Period
s
Dir
15/11:30pm 13.3 SW 10 14 1018.1 - 0.0 - - - - - - -
15/11:00pm 13.3 SW 9 14 1018.3 - 0.0 - - - - - - -
15/10:30pm 13.3 SW 10 14 1018.4 - 0.0 - - - - - - -
15/10:00pm 13.7 SSW 10 15 1018.4 - 0.0 - - - - - - -
15/09:30pm 13.8 SSW 11 17 1018.4 - 0.0 - - - - - - -
15/09:00pm 13.5 SSW 11 17 1018.4 - 0.0 - - - - - - -
15/08:30pm 13.6 SSW 12 19 1018.1 - 0.0 - - - - - - -
15/08:00pm 13.8 SSW 14 19 1018.0 - 0.0 - - - - - - -
15/07:30pm 13.8 SSW 13 20 1017.9 - 0.0 - - - - - - -
15/07:00pm 13.9 SW 13 19 1017.6 - 0.0 - - - - - - -
15/06:30pm 13.9 SW 15 20 1017.3 - 0.0 - - - - - - -
15/06:00pm 14.1 SW 11 17 1016.7 - 0.0 - - - - - - -
15/05:30pm 14.7 SW 10 17 1016.3 - 0.0 - - - - - - -
15/05:00pm 14.9 SW 14 20 1016.1 - 0.0 - - - - - - -
15/04:30pm 15.2 SW 16 22 1015.8 - 0.0 - - - - - - -
15/04:00pm 15.8 SW 14 22 1015.5 - 0.0 - - - - - - -
15/03:30pm 15.8 SW 15 22 1015.5 - 0.0 - - - - - - -
15/03:00pm 16.6 SW 15 22 1015.4 - 0.0 - - - - - - -
15/02:30pm 16.6 SSW 13 19 1015.2 - 0.0 - - - - - - -
15/02:00pm 16.3 SW 17 22 1015.1 - 0.0 - - - - - - -
15/01:30pm 16.4 SW 17 23 1015.2 - 0.0 - - - - - - -

Other Formats:

Comma delimited format used in spreadsheet applications
http://www.bom.gov.au/fwo/IDS60701/IDS60701.95806.axf

JavaScript Object Notation format (JSON) in row-major order
http://www.bom.gov.au/fwo/IDS60701/IDS60701.95806.json